createdAt,value
2022-08-25T00:01:59.570Z,100679.00
2022-08-25T00:04:31.312Z,100683.00
2022-08-25T00:07:06.341Z,100681.00
2022-08-25T00:09:36.844Z,100676.00
2022-08-25T00:12:08.447Z,100675.00
2022-08-25T00:14:39.886Z,100671.00
2022-08-25T00:17:10.098Z,100667.00
2022-08-25T00:19:41.838Z,100669.00
2022-08-25T00:22:13.164Z,100673.00
2022-08-25T00:24:46.354Z,100677.00
2022-08-25T00:27:16.174Z,100664.00
2022-08-25T00:29:44.852Z,100671.00
2022-08-25T00:32:14.320Z,100679.00
2022-08-25T00:34:44.114Z,100667.00
2022-08-25T00:37:18.688Z,100665.00
2022-08-25T00:39:48.983Z,100661.00
2022-08-25T00:42:21.069Z,100665.00
2022-08-25T00:44:50.726Z,100664.00
2022-08-25T00:47:21.826Z,100657.00
2022-08-25T00:49:55.209Z,100662.00
2022-08-25T00:52:29.837Z,100663.00
2022-08-25T00:55:08.244Z,100661.00
2022-08-25T00:57:42.628Z,100660.00
2022-08-25T01:00:17.342Z,100655.00
2022-08-25T01:02:46.822Z,100658.00
2022-08-25T01:05:16.542Z,100649.00
2022-08-25T01:07:47.873Z,100655.00
2022-08-25T01:10:18.816Z,100656.00
2022-08-25T01:12:50.637Z,100649.00
2022-08-25T01:15:20.264Z,100648.00
2022-08-25T01:17:51.357Z,100646.00
2022-08-25T01:20:24.440Z,100644.00
2022-08-25T01:23:01.660Z,100645.00
2022-08-25T01:25:38.415Z,100646.00
2022-08-25T01:28:08.925Z,100643.00
2022-08-25T01:30:38.464Z,100640.00
2022-08-25T01:33:08.783Z,100645.00
2022-08-25T01:35:38.627Z,100636.00
2022-08-25T01:38:11.435Z,100641.00
2022-08-25T01:40:41.682Z,100648.00
2022-08-25T01:43:19.934Z,100654.00
2022-08-25T01:45:50.284Z,100646.00
2022-08-25T01:48:21.698Z,100648.00
2022-08-25T01:50:50.866Z,100653.00
2022-08-25T01:53:29.451Z,100643.00
2022-08-25T01:56:10.479Z,100644.00
2022-08-25T01:58:42.753Z,100646.00
2022-08-25T02:01:16.084Z,100649.00
2022-08-25T02:03:48.082Z,100640.00
2022-08-25T02:06:20.219Z,100643.00
2022-08-25T02:08:54.925Z,100636.00
2022-08-25T02:11:24.910Z,100646.00
2022-08-25T02:13:53.840Z,100653.00
2022-08-25T02:16:28.376Z,100655.00
2022-08-25T02:18:57.570Z,100637.00
2022-08-25T02:21:30.895Z,100634.00
2022-08-25T02:24:01.256Z,100640.00
2022-08-25T02:26:29.836Z,100643.00
2022-08-25T02:28:58.679Z,100642.00
2022-08-25T02:31:27.846Z,100644.00
2022-08-25T02:33:57.490Z,100638.00
2022-08-25T02:36:26.151Z,100632.00
2022-08-25T02:38:54.707Z,100620.00
2022-08-25T02:41:28.855Z,100634.00
2022-08-25T02:44:01.120Z,100636.00
2022-08-25T02:46:31.105Z,100632.00
2022-08-25T02:48:59.987Z,100640.00
2022-08-25T02:51:30.250Z,100632.00
2022-08-25T02:53:59.954Z,100644.00
2022-08-25T02:56:32.754Z,100645.00
2022-08-25T02:59:01.956Z,100634.00
2022-08-25T03:01:33.825Z,100635.00
2022-08-25T03:04:03.517Z,100636.00
2022-08-25T03:06:32.578Z,100630.00
2022-08-25T03:09:02.611Z,100632.00
2022-08-25T03:11:38.573Z,100631.00
2022-08-25T03:14:08.681Z,100626.00
2022-08-25T03:16:39.301Z,100621.00
2022-08-25T03:19:09.117Z,100625.00
2022-08-25T03:21:40.525Z,100622.00
2022-08-25T03:24:10.880Z,100623.00
2022-08-25T03:26:56.057Z,100621.00
2022-08-25T03:29:27.023Z,100620.00
2022-08-25T03:31:58.323Z,100618.00
2022-08-25T03:34:29.022Z,100619.00
2022-08-25T03:36:58.427Z,100619.00
2022-08-25T03:39:29.120Z,100628.00
2022-08-25T03:42:00.624Z,100631.00
2022-08-25T03:44:30.710Z,100623.00
2022-08-25T03:46:59.875Z,100624.00
2022-08-25T03:49:29.816Z,100621.00
2022-08-25T03:52:00.399Z,100619.00
2022-08-25T03:54:30.238Z,100617.00
2022-08-25T03:57:00.444Z,100621.00
2022-08-25T03:59:30.273Z,100622.00
2022-08-25T04:02:02.456Z,100629.00
2022-08-25T04:04:31.634Z,100633.00
2022-08-25T04:07:01.905Z,100609.00
2022-08-25T04:09:35.231Z,100616.00
2022-08-25T04:12:08.000Z,100607.00
2022-08-25T04:14:37.049Z,100619.00
2022-08-25T04:17:06.597Z,100621.00
2022-08-25T04:19:35.472Z,100608.00
2022-08-25T04:22:04.261Z,100606.00
2022-08-25T04:24:32.944Z,100602.00
2022-08-25T04:27:01.654Z,100602.00
2022-08-25T04:29:32.734Z,100603.00
2022-08-25T04:32:03.853Z,100615.00
2022-08-25T04:34:33.020Z,100608.00
2022-08-25T04:37:14.431Z,100608.00
2022-08-25T04:39:43.259Z,100610.00
2022-08-25T04:42:12.943Z,100615.00
2022-08-25T04:44:52.338Z,100607.00
2022-08-25T04:47:24.999Z,100614.00
2022-08-25T04:49:56.687Z,100610.00
2022-08-25T04:52:25.346Z,100607.00
2022-08-25T04:54:54.149Z,100603.00
2022-08-25T04:57:22.947Z,100603.00
2022-08-25T04:59:54.948Z,100612.00
2022-08-25T05:02:27.315Z,100612.00
2022-08-25T05:04:57.676Z,100621.00
2022-08-25T05:07:26.300Z,100620.00
2022-08-25T05:09:56.731Z,100624.00
2022-08-25T05:12:27.445Z,100624.00
2022-08-25T05:15:19.991Z,100625.00
2022-08-25T05:17:52.681Z,100629.00
2022-08-25T05:20:26.262Z,100633.00
2022-08-25T05:22:54.883Z,100629.00
2022-08-25T05:25:23.494Z,100634.00
2022-08-25T05:27:53.404Z,100623.00
2022-08-25T05:30:23.533Z,100622.00
2022-08-25T05:32:53.015Z,100626.00
2022-08-25T05:35:27.981Z,100639.00
2022-08-25T05:37:58.078Z,100636.00
2022-08-25T05:42:57.916Z,100634.00
2022-08-25T05:45:28.198Z,100624.00
2022-08-25T05:47:57.641Z,100632.00
2022-08-25T05:50:26.401Z,100636.00
2022-08-25T05:52:55.058Z,100628.00
2022-08-25T05:55:23.811Z,100631.00
2022-08-25T05:57:52.442Z,100623.00
2022-08-25T06:00:21.287Z,100617.00
2022-08-25T06:02:51.160Z,100623.00
2022-08-25T06:05:21.681Z,100617.00
2022-08-25T06:07:52.938Z,100620.00
2022-08-25T06:10:22.114Z,100627.00
2022-08-25T06:12:51.184Z,100629.00
2022-08-25T06:15:24.479Z,100618.00
2022-08-25T06:18:00.708Z,100624.00
2022-08-25T06:20:32.008Z,100621.00
2022-08-25T06:23:01.073Z,100633.00
2022-08-25T06:25:32.818Z,100631.00
2022-08-25T06:28:01.507Z,100640.00
2022-08-25T06:30:30.400Z,100627.00
2022-08-25T06:33:00.689Z,100631.00
2022-08-25T06:35:29.845Z,100619.00
2022-08-25T06:37:59.208Z,100623.00
2022-08-25T06:40:29.198Z,100620.00
2022-08-25T06:42:59.399Z,100620.00
2022-08-25T06:45:28.372Z,100630.00
2022-08-25T06:48:00.726Z,100627.00
2022-08-25T06:50:29.634Z,100631.00
2022-08-25T06:52:58.605Z,100628.00
2022-08-25T06:55:27.574Z,100622.00
2022-08-25T06:57:56.550Z,100627.00
2022-08-25T07:00:30.572Z,100622.00
2022-08-25T07:03:02.316Z,100631.00
2022-08-25T07:05:43.572Z,100630.00
2022-08-25T07:08:13.222Z,100625.00
2022-08-25T07:10:42.379Z,100629.00
2022-08-25T07:13:17.588Z,100628.00
2022-08-25T07:15:46.559Z,100629.00
2022-08-25T07:18:18.045Z,100621.00
2022-08-25T07:20:46.926Z,100631.00
2022-08-25T07:23:17.274Z,100624.00
2022-08-25T07:25:46.503Z,100625.00
2022-08-25T07:28:18.001Z,100624.00
2022-08-25T07:30:51.596Z,100612.00
2022-08-25T07:33:22.434Z,100614.00
2022-08-25T07:35:50.177Z,100624.00
2022-08-25T07:38:21.031Z,100621.00
2022-08-25T07:43:45.467Z,100613.00
2022-08-25T07:46:15.099Z,100616.00
2022-08-25T07:48:53.301Z,100614.00
2022-08-25T07:51:22.375Z,100613.00
2022-08-25T07:53:51.592Z,100612.00
2022-08-25T07:56:20.977Z,100615.00
2022-08-25T07:58:50.348Z,100612.00
2022-08-25T08:01:20.192Z,100615.00
2022-08-25T08:03:51.617Z,100611.00
2022-08-25T08:06:23.608Z,100613.00
2022-08-25T08:08:57.864Z,100612.00
2022-08-25T08:11:30.204Z,100615.00
2022-08-25T08:14:01.039Z,100619.00
2022-08-25T08:16:31.616Z,100613.00
2022-08-25T08:19:03.704Z,100622.00
2022-08-25T08:21:34.770Z,100616.00
2022-08-25T08:24:10.651Z,100608.00
2022-08-25T08:26:57.775Z,100605.00
2022-08-25T08:29:27.873Z,100608.00
2022-08-25T08:31:56.569Z,100601.00
2022-08-25T08:34:26.804Z,100596.00
2022-08-25T08:36:56.394Z,100593.00
2022-08-25T08:39:25.647Z,100595.00
2022-08-25T08:42:22.206Z,100589.00
2022-08-25T08:45:18.465Z,100595.00
2022-08-25T08:47:57.019Z,100582.00
2022-08-25T08:50:33.769Z,100593.00
2022-08-25T08:53:08.903Z,100595.00
2022-08-25T08:55:41.134Z,100596.00
2022-08-25T08:58:15.493Z,100593.00
2022-08-25T09:00:52.159Z,100586.00
2022-08-25T09:03:33.080Z,100579.00
2022-08-25T09:06:07.344Z,100570.00
2022-08-25T09:08:37.650Z,100577.00
2022-08-25T09:11:22.650Z,100569.00
2022-08-25T09:14:09.518Z,100567.00
2022-08-25T09:16:56.727Z,100569.00
2022-08-25T09:19:47.239Z,100560.00
2022-08-25T09:22:36.018Z,100559.00
2022-08-25T09:25:29.529Z,100553.00
2022-08-25T09:28:09.155Z,100556.00
2022-08-25T09:30:47.154Z,100552.00
2022-08-25T09:33:20.935Z,100545.00
2022-08-25T09:35:51.648Z,100542.00
2022-08-25T09:38:24.870Z,100547.00
2022-08-25T09:40:57.497Z,100550.00
2022-08-25T09:43:34.816Z,100538.00
2022-08-25T09:46:10.555Z,100543.00
2022-08-25T09:48:48.437Z,100534.00
2022-08-25T09:51:28.411Z,100543.00
2022-08-25T09:54:10.473Z,100540.00
2022-08-25T09:56:51.326Z,100539.00
2022-08-25T09:59:32.856Z,100533.00
2022-08-25T10:02:06.786Z,100526.00
2022-08-25T10:04:38.103Z,100517.00
2022-08-25T10:07:26.831Z,100521.00
2022-08-25T10:09:59.930Z,100506.00
2022-08-25T10:12:34.741Z,100519.00
2022-08-25T10:15:29.570Z,100511.00
2022-08-25T10:18:20.681Z,100501.00
2022-08-25T10:21:04.669Z,100498.00
2022-08-25T10:23:41.278Z,100487.00
2022-08-25T10:26:24.017Z,100492.00
2022-08-25T10:29:11.871Z,100476.00
2022-08-25T10:31:48.341Z,100484.00
2022-08-25T10:34:32.248Z,100478.00
2022-08-25T10:37:13.805Z,100473.00
2022-08-25T10:39:46.348Z,100476.00
2022-08-25T10:42:36.170Z,100464.00
2022-08-25T10:45:36.467Z,100458.00
2022-08-25T10:48:40.383Z,100456.00
2022-08-25T10:51:26.242Z,100458.00
2022-08-25T10:54:02.291Z,100453.00
2022-08-25T10:56:46.465Z,100448.00
2022-08-25T10:59:35.953Z,100445.00
2022-08-25T11:02:34.272Z,100445.00
2022-08-25T11:05:07.384Z,100448.00
2022-08-25T11:07:38.646Z,100440.00
2022-08-25T11:10:11.628Z,100449.00
2022-08-25T11:12:44.890Z,100440.00
2022-08-25T11:15:23.629Z,100442.00
2022-08-25T11:18:02.671Z,100445.00
2022-08-25T11:20:41.255Z,100443.00
2022-08-25T11:23:28.740Z,100435.00
2022-08-25T11:29:55.400Z,100428.00
2022-08-25T11:32:25.870Z,100417.00
2022-08-25T11:34:55.227Z,100421.00
2022-08-25T11:37:28.502Z,100417.00
2022-08-25T11:40:20.590Z,100415.00
2022-08-25T11:43:01.817Z,100421.00
2022-08-25T11:45:54.240Z,100415.00
2022-08-25T11:48:38.523Z,100407.00
2022-08-25T11:51:09.699Z,100413.00
2022-08-25T11:53:41.769Z,100411.00
2022-08-25T11:56:14.200Z,100396.00
2022-08-25T11:58:50.141Z,100396.00
2022-08-25T12:01:58.354Z,100386.00
2022-08-25T12:04:44.129Z,100391.00
2022-08-25T12:07:25.890Z,100390.00
2022-08-25T12:10:16.351Z,100391.00
2022-08-25T12:13:10.455Z,100369.00
2022-08-25T12:16:01.013Z,100379.00
2022-08-25T12:18:45.747Z,100380.00
2022-08-25T12:21:29.589Z,100371.00
2022-08-25T12:24:15.986Z,100362.00
2022-08-25T12:26:51.673Z,100360.00
2022-08-25T12:29:30.173Z,100358.00
2022-08-25T12:32:23.511Z,100358.00
2022-08-25T12:35:13.692Z,100356.00
2022-08-25T12:37:59.671Z,100361.00
2022-08-25T12:40:33.754Z,100369.00
2022-08-25T12:43:06.292Z,100355.00
2022-08-25T12:45:39.920Z,100359.00
2022-08-25T12:48:43.059Z,100363.00
2022-08-25T12:51:19.790Z,100368.00
2022-08-25T12:53:53.345Z,100357.00
2022-08-25T12:56:32.348Z,100358.00
2022-08-25T12:59:13.691Z,100361.00
2022-08-25T13:02:09.164Z,100358.00
2022-08-25T13:05:02.737Z,100352.00
2022-08-25T13:07:44.043Z,100354.00
2022-08-25T13:10:42.415Z,100350.00
2022-08-25T13:13:24.104Z,100341.00
2022-08-25T13:16:01.162Z,100345.00
2022-08-25T13:18:31.734Z,100342.00
2022-08-25T13:21:09.562Z,100342.00
2022-08-25T13:23:42.891Z,100336.00
2022-08-25T13:26:15.708Z,100341.00
2022-08-25T13:28:51.597Z,100336.00
2022-08-25T13:31:22.481Z,100332.00
2022-08-25T13:33:56.539Z,100325.00
2022-08-25T13:36:51.883Z,100324.00
2022-08-25T13:39:52.607Z,100322.00
2022-08-25T13:42:20.062Z,100318.00
2022-08-25T13:44:52.380Z,100312.00
2022-08-25T13:47:43.601Z,100310.00
2022-08-25T13:50:23.326Z,100309.00
2022-08-25T13:52:58.026Z,100308.00
2022-08-25T13:55:38.116Z,100310.00
2022-08-25T13:58:24.698Z,100307.00
2022-08-25T14:01:23.320Z,100301.00
2022-08-25T14:04:19.695Z,100308.00
2022-08-25T14:06:48.682Z,100296.00
2022-08-25T14:09:27.940Z,100292.00
2022-08-25T14:11:58.886Z,100294.00
2022-08-25T14:14:36.135Z,100288.00
2022-08-25T14:17:22.449Z,100280.00
2022-08-25T14:19:58.213Z,100292.00
2022-08-25T14:22:27.225Z,100288.00
2022-08-25T14:24:56.530Z,100288.00
2022-08-25T14:27:25.190Z,100287.00
2022-08-25T14:29:55.342Z,100291.00
2022-08-25T14:32:23.848Z,100288.00
2022-08-25T14:34:54.691Z,100289.00
2022-08-25T14:37:25.510Z,100288.00
2022-08-25T14:39:54.835Z,100279.00
2022-08-25T14:42:25.442Z,100280.00
2022-08-25T14:44:56.281Z,100271.00
2022-08-25T14:47:25.357Z,100275.00
2022-08-25T14:49:53.932Z,100266.00
2022-08-25T14:52:26.665Z,100267.00
2022-08-25T14:54:57.201Z,100260.00
2022-08-25T14:57:25.831Z,100254.00
2022-08-25T14:59:55.936Z,100252.00
2022-08-25T15:02:29.638Z,100248.00
2022-08-25T15:05:02.202Z,100250.00
2022-08-25T15:07:49.941Z,100238.00
2022-08-25T15:10:21.649Z,100251.00
2022-08-25T15:12:51.142Z,100253.00
2022-08-25T15:15:26.423Z,100255.00
2022-08-25T15:17:58.130Z,100250.00
2022-08-25T15:20:29.204Z,100253.00
2022-08-25T15:22:57.937Z,100262.00
2022-08-25T15:25:26.697Z,100261.00
2022-08-25T15:27:56.008Z,100259.00
2022-08-25T15:30:31.188Z,100251.00
2022-08-25T15:33:00.363Z,100259.00
2022-08-25T15:35:29.332Z,100261.00
2022-08-25T15:37:58.251Z,100249.00
2022-08-25T15:40:26.880Z,100254.00
2022-08-25T15:42:55.971Z,100252.00
2022-08-25T15:45:25.888Z,100249.00
2022-08-25T15:47:54.434Z,100251.00
2022-08-25T15:50:26.092Z,100251.00
2022-08-25T15:52:54.990Z,100245.00
2022-08-25T15:55:23.744Z,100238.00
2022-08-25T15:57:52.412Z,100239.00
2022-08-25T16:00:21.549Z,100230.00
2022-08-25T16:02:51.738Z,100223.00
2022-08-25T16:05:25.800Z,100222.00
2022-08-25T16:07:54.725Z,100219.00
2022-08-25T16:10:23.821Z,100209.00
2022-08-25T16:12:53.633Z,100212.00
2022-08-25T16:15:23.788Z,100215.00
2022-08-25T16:17:54.157Z,100209.00
2022-08-25T16:20:24.516Z,100209.00
2022-08-25T16:22:53.193Z,100212.00
2022-08-25T16:25:22.129Z,100210.00
2022-08-25T16:27:50.729Z,100211.00
2022-08-25T16:30:19.909Z,100214.00
2022-08-25T16:32:48.574Z,100211.00
2022-08-25T16:35:18.624Z,100206.00
2022-08-25T16:37:47.177Z,100208.00
2022-08-25T16:40:19.026Z,100217.00
2022-08-25T16:42:48.614Z,100211.00
2022-08-25T16:45:18.278Z,100204.00
2022-08-25T16:47:47.296Z,100204.00
2022-08-25T16:50:18.025Z,100204.00
2022-08-25T16:53:03.960Z,100207.00
2022-08-25T16:55:39.239Z,100211.00
2022-08-25T16:58:13.471Z,100206.00
2022-08-25T17:00:44.685Z,100210.00
2022-08-25T17:03:14.023Z,100204.00
2022-08-25T17:05:45.394Z,100200.00
2022-08-25T17:08:32.231Z,100201.00
2022-08-25T17:11:10.256Z,100203.00
2022-08-25T17:13:40.063Z,100198.00
2022-08-25T17:16:14.598Z,100210.00
2022-08-25T17:18:46.516Z,100206.00
2022-08-25T17:21:24.276Z,100209.00
2022-08-25T17:23:54.672Z,100209.00
2022-08-25T17:26:27.787Z,100213.00
2022-08-25T17:28:59.419Z,100215.00
2022-08-25T17:31:30.025Z,100222.00
2022-08-25T17:33:59.985Z,100220.00
2022-08-25T17:36:31.080Z,100226.00
2022-08-25T17:38:59.690Z,100224.00
2022-08-25T17:41:28.222Z,100220.00
2022-08-25T17:43:56.827Z,100225.00
2022-08-25T17:46:25.493Z,100222.00
2022-08-25T17:48:54.808Z,100224.00
2022-08-25T17:51:24.018Z,100233.00
2022-08-25T17:53:53.961Z,100239.00
2022-08-25T17:56:27.240Z,100241.00
2022-08-25T17:58:57.161Z,100250.00
2022-08-25T18:01:30.225Z,100249.00
2022-08-25T18:03:59.956Z,100249.00
2022-08-25T18:06:31.100Z,100250.00
2022-08-25T18:09:03.513Z,100257.00
2022-08-25T18:11:33.404Z,100260.00
2022-08-25T18:14:01.986Z,100257.00
2022-08-25T18:16:30.825Z,100258.00
2022-08-25T18:18:59.460Z,100260.00
2022-08-25T18:21:30.924Z,100264.00
2022-08-25T18:24:02.515Z,100265.00
2022-08-25T18:26:32.106Z,100266.00
2022-08-25T18:29:01.555Z,100269.00
2022-08-25T18:31:30.187Z,100271.00
2022-08-25T18:33:59.143Z,100274.00
2022-08-25T18:36:27.714Z,100274.00
2022-08-25T18:39:14.126Z,100280.00
2022-08-25T18:41:45.078Z,100275.00
2022-08-25T18:44:15.674Z,100269.00
2022-08-25T18:46:45.325Z,100267.00
2022-08-25T18:49:15.731Z,100268.00
2022-08-25T18:51:45.543Z,100264.00
2022-08-25T18:54:23.314Z,100269.00
2022-08-25T18:56:54.637Z,100276.00
2022-08-25T18:59:24.142Z,100265.00
2022-08-25T19:01:53.833Z,100265.00
2022-08-25T19:04:31.303Z,100266.00
2022-08-25T19:07:00.960Z,100263.00
2022-08-25T19:09:30.575Z,100278.00
2022-08-25T19:12:01.259Z,100272.00
2022-08-25T19:14:29.944Z,100275.00
2022-08-25T19:16:59.157Z,100272.00
2022-08-25T19:19:29.547Z,100273.00
2022-08-25T19:21:58.231Z,100273.00
2022-08-25T19:24:28.554Z,100274.00
2022-08-25T19:26:57.664Z,100282.00
2022-08-25T19:29:30.517Z,100275.00
2022-08-25T19:32:01.358Z,100275.00
2022-08-25T19:34:33.978Z,100273.00
2022-08-25T19:37:05.223Z,100275.00
2022-08-25T19:39:34.225Z,100271.00
2022-08-25T19:42:03.366Z,100267.00
2022-08-25T19:44:34.030Z,100268.00
2022-08-25T19:47:04.926Z,100260.00
2022-08-25T19:49:38.343Z,100260.00
2022-08-25T19:52:10.715Z,100269.00
2022-08-25T19:54:44.382Z,100273.00
2022-08-25T19:57:20.808Z,100269.00
2022-08-25T19:59:58.571Z,100262.00
2022-08-25T20:02:29.823Z,100268.00
2022-08-25T20:05:00.378Z,100258.00
2022-08-25T20:07:31.647Z,100256.00
2022-08-25T20:10:01.807Z,100266.00
2022-08-25T20:12:31.297Z,100263.00
2022-08-25T20:15:02.161Z,100260.00
2022-08-25T20:17:31.271Z,100259.00
2022-08-25T20:20:04.743Z,100262.00
2022-08-25T20:22:34.697Z,100257.00
2022-08-25T20:25:13.093Z,100261.00
2022-08-25T20:27:45.362Z,100258.00
2022-08-25T20:30:18.401Z,100255.00
2022-08-25T20:32:47.252Z,100260.00
2022-08-25T20:35:16.506Z,100254.00
2022-08-25T20:37:46.631Z,100262.00
2022-08-25T20:40:18.660Z,100257.00
2022-08-25T20:42:54.017Z,100259.00
2022-08-25T20:45:24.886Z,100254.00
2022-08-25T20:47:53.720Z,100256.00
2022-08-25T20:50:22.877Z,100261.00
2022-08-25T20:52:52.347Z,100257.00
2022-08-25T20:55:21.775Z,100262.00
2022-08-25T20:57:50.667Z,100264.00
2022-08-25T21:00:23.497Z,100257.00
2022-08-25T21:02:54.945Z,100254.00
2022-08-25T21:05:23.675Z,100258.00
2022-08-25T21:07:52.289Z,100262.00
2022-08-25T21:10:21.027Z,100263.00
2022-08-25T21:12:53.348Z,100272.00
2022-08-25T21:15:22.227Z,100267.00
2022-08-25T21:17:54.404Z,100256.00
2022-08-25T21:20:24.694Z,100260.00
2022-08-25T21:22:53.439Z,100252.00
2022-08-25T21:25:22.791Z,100257.00
2022-08-25T21:27:51.303Z,100248.00
2022-08-25T21:30:19.948Z,100255.00
2022-08-25T21:32:53.016Z,100246.00
2022-08-25T21:35:24.798Z,100243.00
2022-08-25T21:37:55.427Z,100251.00
2022-08-25T21:40:24.782Z,100248.00
2022-08-25T21:42:53.734Z,100242.00
2022-08-25T21:45:22.303Z,100240.00
2022-08-25T21:47:51.847Z,100241.00
2022-08-25T21:50:21.351Z,100243.00
2022-08-25T21:52:54.672Z,100244.00
2022-08-25T21:55:23.666Z,100246.00
2022-08-25T21:57:52.636Z,100234.00
2022-08-25T22:00:22.326Z,100231.00
2022-08-25T22:02:51.561Z,100235.00
2022-08-25T22:05:20.227Z,100230.00
2022-08-25T22:07:50.112Z,100228.00
2022-08-25T22:10:21.470Z,100226.00
2022-08-25T22:12:52.563Z,100222.00
2022-08-25T22:15:21.269Z,100224.00
2022-08-25T22:17:49.797Z,100209.00
2022-08-25T22:20:19.601Z,100214.00
2022-08-25T22:22:50.076Z,100207.00
2022-08-25T22:25:19.126Z,100209.00
2022-08-25T22:27:48.063Z,100198.00
2022-08-25T22:30:25.355Z,100213.00
2022-08-25T22:32:59.319Z,100213.00
2022-08-25T22:35:28.034Z,100214.00
2022-08-25T22:37:57.979Z,100204.00
2022-08-25T22:40:26.887Z,100204.00
2022-08-25T22:42:57.609Z,100198.00
2022-08-25T22:45:27.772Z,100201.00
2022-08-25T22:47:56.417Z,100201.00
2022-08-25T22:50:25.138Z,100194.00
2022-08-25T22:52:54.694Z,100199.00
2022-08-25T22:55:25.694Z,100196.00
2022-08-25T22:57:56.757Z,100195.00
2022-08-25T23:00:25.714Z,100198.00
2022-08-25T23:02:54.594Z,100188.00
2022-08-25T23:05:23.227Z,100187.00
2022-08-25T23:07:51.837Z,100178.00
2022-08-25T23:10:22.711Z,100173.00
2022-08-25T23:12:52.732Z,100181.00
2022-08-25T23:15:21.428Z,100173.00
2022-08-25T23:17:50.617Z,100171.00
2022-08-25T23:20:37.093Z,100169.00
2022-08-25T23:23:13.897Z,100167.00
2022-08-25T23:25:42.547Z,100169.00
2022-08-25T23:28:12.593Z,100161.00
2022-08-25T23:30:42.718Z,100163.00
2022-08-25T23:33:15.463Z,100162.00
2022-08-25T23:35:47.432Z,100160.00
2022-08-25T23:38:16.114Z,100160.00
2022-08-25T23:40:46.628Z,100159.00
2022-08-25T23:43:16.512Z,100160.00
2022-08-25T23:45:46.369Z,100159.00
2022-08-25T23:48:15.078Z,100157.00
2022-08-25T23:50:49.092Z,100164.00
2022-08-25T23:53:22.839Z,100153.00
2022-08-25T23:55:53.926Z,100154.00
2022-08-25T23:58:24.349Z,100150.00
